createdAt,value
2018-07-27T00:02:03.856Z,4.77
2018-07-27T00:04:33.177Z,5.17
2018-07-27T00:07:02.586Z,5.53
2018-07-27T00:09:31.929Z,5.23
2018-07-27T00:12:01.286Z,5.10
2018-07-27T00:14:30.590Z,4.90
2018-07-27T00:16:59.872Z,5.13
2018-07-27T00:19:30.222Z,5.77
2018-07-27T00:21:59.534Z,5.67
2018-07-27T00:24:28.810Z,4.97
2018-07-27T00:26:58.174Z,5.47
2018-07-27T00:29:27.581Z,5.40
2018-07-27T00:31:56.879Z,5.50
2018-07-27T00:34:26.155Z,5.20
2018-07-27T00:36:55.446Z,5.50
2018-07-27T00:39:24.800Z,5.70
2018-07-27T00:41:54.118Z,5.67
2018-07-27T00:44:23.393Z,4.63
2018-07-27T00:46:52.677Z,5.00
2018-07-27T00:49:22.062Z,4.93
2018-07-27T00:51:51.361Z,6.07
2018-07-27T00:54:20.356Z,6.00
2018-07-27T00:56:49.532Z,5.03
2018-07-27T00:59:18.782Z,5.50
2018-07-27T01:01:48.140Z,5.67
2018-07-27T01:04:17.501Z,5.60
2018-07-27T01:06:46.862Z,5.83
2018-07-27T01:09:16.210Z,4.90
2018-07-27T01:11:45.727Z,5.67
2018-07-27T01:14:15.085Z,4.97
2018-07-27T01:16:44.426Z,5.17
2018-07-27T01:19:13.811Z,5.70
2018-07-27T01:21:43.248Z,5.67
2018-07-27T01:24:12.613Z,5.47
2018-07-27T01:26:45.269Z,7.17
2018-07-27T01:29:16.506Z,6.23
2018-07-27T01:31:46.106Z,6.20
2018-07-27T01:34:15.449Z,5.30
2018-07-27T01:36:44.790Z,6.80
2018-07-27T01:39:15.237Z,5.30
2018-07-27T01:41:44.705Z,4.70
2018-07-27T01:44:14.070Z,5.27
2018-07-27T01:46:43.419Z,5.33
2018-07-27T01:49:12.773Z,6.10
2018-07-27T01:51:42.108Z,6.80
2018-07-27T01:54:11.434Z,5.63
2018-07-27T01:56:40.815Z,5.27
2018-07-27T01:59:10.169Z,5.60
2018-07-27T02:01:39.779Z,5.60
2018-07-27T02:04:09.118Z,5.80
2018-07-27T02:06:38.600Z,5.43
2018-07-27T02:09:09.391Z,5.00
2018-07-27T02:11:38.931Z,5.73
2018-07-27T02:14:08.378Z,5.80
2018-07-27T02:16:37.765Z,5.57
2018-07-27T02:19:08.226Z,5.97
2018-07-27T02:21:37.605Z,5.90
2018-07-27T02:24:06.901Z,5.50
2018-07-27T02:26:36.200Z,6.23
2018-07-27T02:29:05.539Z,5.53
2018-07-27T02:31:34.562Z,6.37
2018-07-27T02:34:03.792Z,5.73
2018-07-27T02:36:33.154Z,5.60
2018-07-27T02:39:02.192Z,5.87
2018-07-27T02:41:32.192Z,6.10
2018-07-27T02:44:01.515Z,5.90
2018-07-27T02:46:31.082Z,5.63
2018-07-27T02:49:00.595Z,5.53
2018-07-27T02:51:30.099Z,5.33
2018-07-27T02:53:59.405Z,6.30
2018-07-27T02:56:28.762Z,6.20
2018-07-27T02:58:58.089Z,5.20
2018-07-27T03:01:27.485Z,5.90
2018-07-27T03:03:56.852Z,5.40
2018-07-27T03:06:26.174Z,5.07
2018-07-27T03:08:55.487Z,5.30
2018-07-27T03:11:24.494Z,6.60
2018-07-27T03:13:53.775Z,6.07
2018-07-27T03:16:23.088Z,4.87
2018-07-27T03:18:52.425Z,6.00
2018-07-27T03:21:21.819Z,6.37
2018-07-27T03:23:51.207Z,5.70
2018-07-27T03:26:20.526Z,5.57
2018-07-27T03:28:50.479Z,5.40
2018-07-27T03:31:19.863Z,7.40
2018-07-27T03:33:49.297Z,5.90
2018-07-27T03:36:18.678Z,5.27
2018-07-27T03:38:48.065Z,5.80
2018-07-27T03:41:17.411Z,5.83
2018-07-27T03:43:46.885Z,5.50
2018-07-27T03:46:16.307Z,5.03
2018-07-27T03:48:45.670Z,5.30
2018-07-27T03:51:15.047Z,5.60
2018-07-27T03:53:44.419Z,5.53
2018-07-27T03:56:13.813Z,5.60
2018-07-27T03:58:43.206Z,5.43
2018-07-27T04:01:12.580Z,5.67
2018-07-27T04:03:41.979Z,5.90
2018-07-27T04:06:11.334Z,5.70
2018-07-27T04:08:40.863Z,5.90
2018-07-27T04:11:10.216Z,5.73
2018-07-27T04:13:39.626Z,6.40
2018-07-27T04:16:08.986Z,6.17
2018-07-27T04:18:39.358Z,6.03
2018-07-27T04:21:08.751Z,5.07
2018-07-27T04:23:38.138Z,5.63
2018-07-27T04:26:07.469Z,6.07
2018-07-27T04:28:36.789Z,5.40
2018-07-27T04:31:06.159Z,4.97
2018-07-27T04:33:35.498Z,6.70
2018-07-27T04:36:04.838Z,5.10
2018-07-27T04:38:34.125Z,5.37
2018-07-27T04:41:03.462Z,6.20
2018-07-27T04:43:33.011Z,5.97
2018-07-27T04:46:02.381Z,5.87
2018-07-27T04:48:31.725Z,6.70
2018-07-27T04:51:01.042Z,6.00
2018-07-27T04:53:30.414Z,6.10
2018-07-27T04:55:59.792Z,6.63
2018-07-27T04:58:29.198Z,5.63
2018-07-27T05:00:58.536Z,6.60
2018-07-27T05:03:27.872Z,6.50
2018-07-27T05:05:57.223Z,6.10
2018-07-27T05:08:26.558Z,6.90
2018-07-27T05:10:55.960Z,7.10
2018-07-27T05:13:25.295Z,5.90
2018-07-27T05:15:54.648Z,6.90
2018-07-27T05:18:24.072Z,5.50
2018-07-27T05:20:53.396Z,5.73
2018-07-27T05:23:22.752Z,5.70
2018-07-27T05:25:52.073Z,6.00
2018-07-27T05:28:21.492Z,7.10
2018-07-27T05:30:50.835Z,5.47
2018-07-27T05:33:20.172Z,5.23
2018-07-27T05:35:49.551Z,5.50
2018-07-27T05:38:18.911Z,5.73
2018-07-27T05:40:48.284Z,5.47
2018-07-27T05:43:17.659Z,5.67
2018-07-27T05:45:46.988Z,5.47
2018-07-27T05:48:16.383Z,5.90
2018-07-27T05:50:45.735Z,4.80
2018-07-27T05:53:15.123Z,5.60
2018-07-27T05:55:44.495Z,5.20
2018-07-27T05:58:13.918Z,5.43
2018-07-27T06:00:43.315Z,6.03
2018-07-27T06:03:12.813Z,5.30
2018-07-27T06:05:42.216Z,6.00
2018-07-27T06:08:11.598Z,5.20
2018-07-27T06:10:40.979Z,5.90
2018-07-27T06:13:10.316Z,7.03
2018-07-27T06:15:39.819Z,6.57
2018-07-27T06:18:09.516Z,6.17
2018-07-27T06:20:38.803Z,6.10
2018-07-27T06:23:08.363Z,5.80
2018-07-27T06:25:38.785Z,5.87
2018-07-27T06:28:08.181Z,6.40
2018-07-27T06:30:37.612Z,5.70
2018-07-27T06:33:06.968Z,6.40
2018-07-27T06:35:36.400Z,6.30
2018-07-27T06:38:05.815Z,5.60
2018-07-27T06:40:35.184Z,5.73
2018-07-27T06:43:04.598Z,5.40
2018-07-27T06:45:33.905Z,5.57
2018-07-27T06:48:03.327Z,6.40
2018-07-27T06:50:32.675Z,6.57
2018-07-27T06:53:01.702Z,5.57
2018-07-27T06:55:30.955Z,5.57
2018-07-27T06:58:00.331Z,5.37
2018-07-27T07:00:29.684Z,5.50
2018-07-27T07:02:59.058Z,5.53
2018-07-27T07:05:28.387Z,5.17
2018-07-27T07:07:57.767Z,5.40
2018-07-27T07:10:27.245Z,5.50
2018-07-27T07:12:56.627Z,5.50
2018-07-27T07:15:26.044Z,6.10
2018-07-27T07:17:55.479Z,5.20
2018-07-27T07:20:24.985Z,5.10
2018-07-27T07:22:54.403Z,5.10
2018-07-27T07:25:23.901Z,5.50
2018-07-27T07:27:53.217Z,5.70
2018-07-27T07:30:22.673Z,5.07
2018-07-27T07:32:52.047Z,4.83
2018-07-27T07:35:21.536Z,5.17
2018-07-27T07:37:50.946Z,4.37
2018-07-27T07:40:20.375Z,4.47
2018-07-27T07:42:49.766Z,5.37
2018-07-27T07:45:19.149Z,5.77
2018-07-27T07:47:48.593Z,4.70
2018-07-27T07:50:17.986Z,5.97
2018-07-27T07:52:47.391Z,5.10
2018-07-27T07:55:16.767Z,5.33
2018-07-27T07:57:46.150Z,5.17
2018-07-27T08:00:15.724Z,5.13
2018-07-27T08:02:45.118Z,4.63
2018-07-27T08:05:14.532Z,4.73
2018-07-27T08:07:43.550Z,5.60
2018-07-27T08:10:12.805Z,4.80
2018-07-27T08:12:42.152Z,5.43
2018-07-27T08:15:11.658Z,4.70
2018-07-27T08:17:40.986Z,4.03
2018-07-27T08:20:10.402Z,4.30
2018-07-27T08:22:39.767Z,4.47
2018-07-27T08:25:08.850Z,4.53
2018-07-27T08:27:38.083Z,4.77
2018-07-27T08:30:07.987Z,4.50
2018-07-27T08:32:37.299Z,4.20
2018-07-27T08:35:06.702Z,4.00
2018-07-27T08:37:36.023Z,3.23
2018-07-27T08:40:05.752Z,4.13
2018-07-27T08:42:35.120Z,3.80
2018-07-27T08:45:05.035Z,3.77
2018-07-27T08:47:34.464Z,4.00
2018-07-27T08:50:03.906Z,3.93
2018-07-27T08:52:33.319Z,4.27
2018-07-27T08:55:02.691Z,3.47
2018-07-27T08:57:32.103Z,3.77
2018-07-27T09:00:07.771Z,4.03
2018-07-27T09:02:37.138Z,4.57
2018-07-27T09:05:07.423Z,3.67
2018-07-27T09:07:36.757Z,4.10
2018-07-27T09:10:06.188Z,4.90
2018-07-27T09:12:35.578Z,4.53
2018-07-27T09:15:04.999Z,3.90
2018-07-27T09:17:34.378Z,4.40
2018-07-27T09:20:03.841Z,4.70
2018-07-27T09:22:33.210Z,4.40
2018-07-27T09:25:02.908Z,4.33
2018-07-27T09:27:31.911Z,4.50
2018-07-27T09:30:00.978Z,4.67
2018-07-27T09:32:30.211Z,4.33
2018-07-27T09:34:59.606Z,4.93
2018-07-27T09:37:28.990Z,4.60
2018-07-27T09:39:58.438Z,4.10
2018-07-27T09:42:27.838Z,4.57
2018-07-27T09:44:57.191Z,4.20
2018-07-27T09:47:26.543Z,4.33
2018-07-27T09:49:55.886Z,3.40
2018-07-27T09:52:25.223Z,3.90
2018-07-27T09:54:54.599Z,3.80
2018-07-27T09:57:24.008Z,4.00
2018-07-27T09:59:53.386Z,4.03
2018-07-27T10:02:22.807Z,3.80
2018-07-27T10:04:52.164Z,4.00
2018-07-27T10:07:21.627Z,4.00
2018-07-27T10:09:51.038Z,4.10
2018-07-27T10:12:20.406Z,4.40
2018-07-27T10:14:49.795Z,4.67
2018-07-27T10:17:19.142Z,4.40
2018-07-27T10:19:48.572Z,5.30
2018-07-27T10:22:17.600Z,4.50
2018-07-27T10:24:46.942Z,4.10
2018-07-27T10:27:16.288Z,5.17
2018-07-27T10:29:45.654Z,4.10
2018-07-27T10:32:15.057Z,4.67
2018-07-27T10:34:44.428Z,4.20
2018-07-27T10:37:13.798Z,3.50
2018-07-27T10:39:43.123Z,4.20
2018-07-27T10:42:12.595Z,3.87
2018-07-27T10:44:42.065Z,3.50
2018-07-27T10:47:11.485Z,4.20
2018-07-27T10:49:40.818Z,3.93
2018-07-27T10:52:10.295Z,4.20
2018-07-27T10:54:39.658Z,4.17
2018-07-27T10:57:09.207Z,4.13
2018-07-27T10:59:38.719Z,4.40
2018-07-27T11:02:08.324Z,3.63
2018-07-27T11:04:37.697Z,3.73
2018-07-27T11:07:07.099Z,4.30
2018-07-27T11:09:36.157Z,3.90
2018-07-27T11:12:05.454Z,4.10
2018-07-27T11:14:34.802Z,4.00
2018-07-27T11:17:04.230Z,3.90
2018-07-27T11:19:34.156Z,3.77
2018-07-27T11:22:03.622Z,4.53
2018-07-27T11:24:33.022Z,3.90
2018-07-27T11:27:02.389Z,4.53
2018-07-27T11:29:31.777Z,4.70
2018-07-27T11:32:01.192Z,3.90
2018-07-27T11:34:30.528Z,4.00
2018-07-27T11:36:59.948Z,3.70
2018-07-27T11:39:29.300Z,3.93
2018-07-27T11:41:58.738Z,3.70
2018-07-27T11:44:28.126Z,3.70
2018-07-27T11:46:57.550Z,3.33
2018-07-27T11:49:27.012Z,3.70
2018-07-27T11:51:56.604Z,4.10
2018-07-27T11:54:26.063Z,4.03
2018-07-27T11:56:55.525Z,3.80
2018-07-27T11:59:24.966Z,3.23
2018-07-27T12:01:54.793Z,4.67
2018-07-27T12:04:24.145Z,3.60
2018-07-27T12:06:54.603Z,3.43
2018-07-27T12:09:23.920Z,3.70
2018-07-27T12:11:53.295Z,3.33
2018-07-27T12:14:22.870Z,3.70
2018-07-27T12:16:52.064Z,3.87
2018-07-27T12:19:21.430Z,3.80
2018-07-27T12:21:50.780Z,3.30
2018-07-27T12:24:20.200Z,3.90
2018-07-27T12:26:50.223Z,3.73
2018-07-27T12:29:19.707Z,3.37
2018-07-27T12:31:49.234Z,3.70
2018-07-27T12:34:18.831Z,4.20
2018-07-27T12:36:48.455Z,3.50
2018-07-27T12:39:18.096Z,3.97
2018-07-27T12:41:47.546Z,3.00
2018-07-27T12:44:17.074Z,3.40
2018-07-27T12:46:46.742Z,3.37
2018-07-27T12:49:16.495Z,3.30
2018-07-27T12:51:45.941Z,3.30
2018-07-27T12:54:16.384Z,3.23
2018-07-27T12:56:46.093Z,3.23
2018-07-27T12:59:15.648Z,3.57
2018-07-27T13:01:45.708Z,3.97
2018-07-27T13:04:15.663Z,3.33
2018-07-27T13:06:45.798Z,3.80
2018-07-27T13:09:15.216Z,3.37
2018-07-27T13:11:44.859Z,3.27
2018-07-27T13:14:15.386Z,3.90
2018-07-27T13:16:45.061Z,3.40
2018-07-27T13:19:15.572Z,3.23
2018-07-27T13:21:45.295Z,3.40
2018-07-27T13:24:14.883Z,2.80
2018-07-27T13:26:45.609Z,2.80
2018-07-27T13:29:15.027Z,3.53
2018-07-27T13:31:48.527Z,3.27
2018-07-27T13:34:39.405Z,3.40
2018-07-27T13:37:09.323Z,2.77
2018-07-27T13:39:39.557Z,3.23
2018-07-27T13:42:11.042Z,3.10
2018-07-27T13:44:41.125Z,2.53
2018-07-27T13:47:11.046Z,3.10
2018-07-27T13:49:40.560Z,3.07
2018-07-27T13:52:10.301Z,3.40
2018-07-27T13:54:39.942Z,3.10
2018-07-27T13:57:09.895Z,3.27
2018-07-27T13:59:39.717Z,3.10
2018-07-27T14:02:09.842Z,3.30
2018-07-27T14:04:39.510Z,2.87
2018-07-27T14:07:09.905Z,3.10
2018-07-27T14:09:39.971Z,3.50
2018-07-27T14:12:09.807Z,3.10
2018-07-27T14:14:39.515Z,3.40
2018-07-27T14:17:08.971Z,3.17
2018-07-27T14:19:38.584Z,2.60
2018-07-27T14:22:08.245Z,2.97
2018-07-27T14:24:38.039Z,3.57
2018-07-27T14:27:07.475Z,2.30
2018-07-27T14:29:36.976Z,2.57
2018-07-27T14:32:06.202Z,2.93
2018-07-27T14:34:35.195Z,2.57
2018-07-27T14:37:04.546Z,3.50
2018-07-27T14:39:34.164Z,3.10
2018-07-27T14:42:03.668Z,2.97
2018-07-27T14:44:33.219Z,2.93
2018-07-27T14:47:03.032Z,2.83
2018-07-27T14:49:32.653Z,2.70
2018-07-27T14:52:02.193Z,2.80
2018-07-27T14:54:32.486Z,2.63
2018-07-27T14:57:02.892Z,2.83
2018-07-27T14:59:32.479Z,2.63
2018-07-27T15:02:02.082Z,2.50
2018-07-27T15:04:31.198Z,2.50
2018-07-27T15:07:00.559Z,2.63
2018-07-27T15:09:30.128Z,2.30
2018-07-27T15:11:59.601Z,2.60
2018-07-27T15:14:28.965Z,2.30
2018-07-27T15:16:58.448Z,3.23
2018-07-27T15:19:27.820Z,2.77
2018-07-27T15:21:57.202Z,3.20
2018-07-27T15:24:26.765Z,2.67
2018-07-27T15:26:56.183Z,2.83
2018-07-27T15:29:25.553Z,2.80
2018-07-27T15:31:55.086Z,3.03
2018-07-27T15:34:24.656Z,3.17
2018-07-27T15:36:55.125Z,3.17
2018-07-27T15:39:25.564Z,3.10
2018-07-27T15:41:56.525Z,3.40
2018-07-27T15:44:25.645Z,3.30
2018-07-27T15:46:55.267Z,3.20
2018-07-27T15:49:24.938Z,3.23
2018-07-27T15:51:54.570Z,3.37
2018-07-27T15:54:23.962Z,3.13
2018-07-27T15:56:53.119Z,2.83
2018-07-27T15:59:22.596Z,3.20
2018-07-27T16:01:52.156Z,3.17
2018-07-27T16:04:21.894Z,3.67
2018-07-27T16:06:51.479Z,3.47
2018-07-27T16:09:20.957Z,3.73
2018-07-27T16:11:50.824Z,3.83
2018-07-27T16:14:20.581Z,3.33
2018-07-27T16:16:50.076Z,3.37
2018-07-27T16:19:19.664Z,3.30
2018-07-27T16:21:49.162Z,3.20
2018-07-27T16:24:18.529Z,4.03
2018-07-27T16:26:47.910Z,3.60
2018-07-27T16:29:17.300Z,3.77
2018-07-27T16:31:46.856Z,3.50
2018-07-27T16:34:16.320Z,2.97
2018-07-27T16:36:45.730Z,3.03
2018-07-27T16:39:15.144Z,3.90
2018-07-27T16:41:44.591Z,3.57
2018-07-27T16:44:14.059Z,3.23
2018-07-27T16:46:43.471Z,3.90
2018-07-27T16:49:12.857Z,2.90
2018-07-27T16:51:42.186Z,3.80
2018-07-27T16:54:11.165Z,3.07
2018-07-27T16:56:40.428Z,3.13
2018-07-27T16:59:09.771Z,3.30
2018-07-27T17:01:38.814Z,4.00
2018-07-27T17:04:08.175Z,3.80
2018-07-27T17:06:37.134Z,3.10
2018-07-27T17:09:09.717Z,3.57
2018-07-27T17:11:39.387Z,3.50
2018-07-27T17:14:08.952Z,4.10
2018-07-27T17:16:38.426Z,3.40
2018-07-27T17:19:07.862Z,4.30
2018-07-27T17:21:37.733Z,4.00
2018-07-27T17:24:07.229Z,3.50
2018-07-27T17:26:41.566Z,3.90
2018-07-27T17:29:10.962Z,3.83
2018-07-27T17:31:40.477Z,4.80
2018-07-27T17:34:09.982Z,4.10
2018-07-27T17:36:39.546Z,3.53
2018-07-27T17:39:10.970Z,3.40
2018-07-27T17:41:40.480Z,3.67
2018-07-27T17:44:10.166Z,3.80
2018-07-27T17:46:40.069Z,3.27
2018-07-27T17:49:10.203Z,3.70
2018-07-27T17:51:39.762Z,3.60
2018-07-27T17:54:10.614Z,3.87
2018-07-27T17:56:40.190Z,4.27
2018-07-27T17:59:09.823Z,4.17
2018-07-27T18:01:39.439Z,4.73
2018-07-27T18:04:09.019Z,3.67
2018-07-27T18:06:38.622Z,3.67
2018-07-27T18:09:11.367Z,4.57
2018-07-27T18:11:41.139Z,3.93
2018-07-27T18:14:10.938Z,4.30
2018-07-27T18:16:40.570Z,3.90
2018-07-27T18:19:10.209Z,4.03
2018-07-27T18:21:39.972Z,4.20
2018-07-27T18:24:09.561Z,4.10
2018-07-27T18:26:39.069Z,3.90
2018-07-27T18:29:09.694Z,4.50
2018-07-27T18:31:39.167Z,3.43
2018-07-27T18:34:08.811Z,4.83
2018-07-27T18:36:38.831Z,8.03
2018-07-27T18:39:10.384Z,5.70
2018-07-27T18:41:39.985Z,4.43
2018-07-27T18:44:09.648Z,4.03
2018-07-27T18:46:40.144Z,4.13
2018-07-27T18:49:10.281Z,4.17
2018-07-27T18:51:40.256Z,4.10
2018-07-27T18:54:10.019Z,3.67
2018-07-27T18:56:39.712Z,4.67
2018-07-27T18:59:09.321Z,5.20
2018-07-27T19:01:39.081Z,4.93
2018-07-27T19:04:08.542Z,4.23
2018-07-27T19:06:38.015Z,5.00
2018-07-27T19:09:12.301Z,5.57
2018-07-27T19:11:41.915Z,6.00
2018-07-27T19:14:11.493Z,5.47
2018-07-27T19:16:41.329Z,4.87
2018-07-27T19:19:10.742Z,5.93
2018-07-27T19:21:40.103Z,7.00
2018-07-27T19:24:09.560Z,7.50
2018-07-27T19:26:39.576Z,6.00
2018-07-27T19:29:09.121Z,6.13
2018-07-27T19:31:38.792Z,6.23
2018-07-27T19:34:08.476Z,6.70
2018-07-27T19:36:38.065Z,5.97
2018-07-27T19:39:09.792Z,5.90
2018-07-27T19:41:39.411Z,5.60
2018-07-27T19:44:09.000Z,5.60
2018-07-27T19:46:39.043Z,6.03
2018-07-27T19:49:08.502Z,6.10
2018-07-27T19:51:38.154Z,7.43
2018-07-27T19:54:07.904Z,6.20
2018-07-27T19:56:37.563Z,5.17
2018-07-27T19:59:07.561Z,4.40
2018-07-27T20:01:37.127Z,4.10
2018-07-27T20:04:06.672Z,4.37
2018-07-27T20:06:36.513Z,4.10
2018-07-27T20:09:08.663Z,3.90
2018-07-27T20:11:38.212Z,4.83
2018-07-27T20:14:07.695Z,4.57
2018-07-27T20:16:37.381Z,4.47
2018-07-27T20:19:06.916Z,4.80
2018-07-27T20:21:36.670Z,4.00
2018-07-27T20:24:06.207Z,4.97
2018-07-27T20:26:36.788Z,3.80
2018-07-27T20:29:06.252Z,4.27
2018-07-27T20:31:35.868Z,3.63
2018-07-27T20:34:05.520Z,3.90
2018-07-27T20:36:34.950Z,5.00
2018-07-27T20:39:07.075Z,3.90
2018-07-27T20:41:36.520Z,4.83
2018-07-27T20:44:06.094Z,5.33
2018-07-27T20:46:35.652Z,4.60
2018-07-27T20:49:05.449Z,4.70
2018-07-27T20:51:35.071Z,5.20
2018-07-27T20:54:04.685Z,5.43
2018-07-27T20:56:34.119Z,5.30
2018-07-27T20:59:03.648Z,4.90
2018-07-27T21:01:33.152Z,5.07
2018-07-27T21:04:02.720Z,4.90
2018-07-27T21:06:32.185Z,5.03
2018-07-27T21:09:01.862Z,4.53
2018-07-27T21:11:31.542Z,4.77
2018-07-27T21:14:01.149Z,4.27
2018-07-27T21:16:30.621Z,5.23
2018-07-27T21:19:00.194Z,4.80
2018-07-27T21:21:29.743Z,4.47
2018-07-27T21:23:59.136Z,4.63
2018-07-27T21:26:28.514Z,4.90
2018-07-27T21:28:57.822Z,4.60
2018-07-27T21:31:27.309Z,4.70
2018-07-27T21:33:56.711Z,5.43
2018-07-27T21:36:26.213Z,5.60
2018-07-27T21:38:55.846Z,5.90
2018-07-27T21:41:25.346Z,5.57
2018-07-27T21:43:55.078Z,5.50
2018-07-27T21:46:24.583Z,5.57
2018-07-27T21:48:54.016Z,5.93
2018-07-27T21:51:23.451Z,6.00
2018-07-27T21:53:52.907Z,5.17
2018-07-27T21:56:22.352Z,5.83
2018-07-27T21:58:51.813Z,5.17
2018-07-27T22:01:21.356Z,5.90
2018-07-27T22:03:50.773Z,6.73
2018-07-27T22:06:20.187Z,5.90
2018-07-27T22:08:49.810Z,5.17
2018-07-27T22:11:19.271Z,5.47
2018-07-27T22:13:48.739Z,5.63
2018-07-27T22:16:18.411Z,5.67
2018-07-27T22:18:47.455Z,5.90
2018-07-27T22:21:16.781Z,6.03
2018-07-27T22:23:46.261Z,6.10
2018-07-27T22:26:15.627Z,5.57
2018-07-27T22:28:45.075Z,6.00
2018-07-27T22:31:14.622Z,5.40
2018-07-27T22:33:44.135Z,6.10
2018-07-27T22:36:13.623Z,5.97
2018-07-27T22:38:43.088Z,6.50
2018-07-27T22:41:12.534Z,6.13
2018-07-27T22:43:41.967Z,6.80
2018-07-27T22:46:11.368Z,5.33
2018-07-27T22:48:40.785Z,6.60
2018-07-27T22:51:10.206Z,6.30
2018-07-27T22:53:39.767Z,5.93
2018-07-27T22:56:08.794Z,5.63
2018-07-27T22:58:38.060Z,6.23
2018-07-27T23:01:07.435Z,6.13
2018-07-27T23:03:36.854Z,6.80
2018-07-27T23:06:06.288Z,6.53
2018-07-27T23:08:35.707Z,6.67
2018-07-27T23:11:05.212Z,5.97
2018-07-27T23:13:34.614Z,6.50
2018-07-27T23:16:04.098Z,6.47
2018-07-27T23:18:33.513Z,6.73
2018-07-27T23:21:02.884Z,6.00
2018-07-27T23:23:32.303Z,6.77
2018-07-27T23:26:01.776Z,7.00
2018-07-27T23:28:32.291Z,6.57
2018-07-27T23:31:01.699Z,6.43
2018-07-27T23:33:31.187Z,6.80
2018-07-27T23:36:00.617Z,7.10
2018-07-27T23:38:30.076Z,6.63
2018-07-27T23:40:59.443Z,7.73
2018-07-27T23:43:28.796Z,6.43
2018-07-27T23:45:58.251Z,7.20
2018-07-27T23:48:27.739Z,7.20
2018-07-27T23:50:57.163Z,6.93
2018-07-27T23:53:26.746Z,8.33
2018-07-27T23:55:56.209Z,7.13
2018-07-27T23:58:25.604Z,7.10
